Time;durP1;ratioP1;P1;durP2;ratioP2;P2;SDS_P1;SDS_P2;PMS_P1;PMS_P2;Temp;Humidity;BMP_temperature;BMP_pressure;BME280_temperature;BME280_humidity;BME280_pressure;Samples;Min_cycle;Max_cycle;Signal;HPM_P1;HPM_P2
2023/03/02 00:01:50;;;;;;;34.92;24.58;;;6.50;99.90;;;6.61;63.58;102386.59;5032238;28;20049;-69
2023/03/02 00:04:23;;;;;;;34.88;24.55;;;6.40;99.90;;;6.63;63.84;102388.44;5031201;28;20445;-69
2023/03/02 00:06:55;;;;;;;36.65;24.65;;;6.50;99.90;;;6.63;64.25;102383.19;5031289;28;20049;-69
2023/03/02 00:09:25;;;;;;;37.30;25.65;;;6.50;99.90;;;6.44;64.48;102345.69;5032313;28;20412;-69
2023/03/02 00:11:54;;;;;;;39.72;26.05;;;6.50;99.90;;;6.68;64.70;102386.88;5032184;28;20103;-69
2023/03/02 00:14:22;;;;;;;40.72;28.42;;;6.50;99.90;;;6.59;65.92;102389.19;5032375;28;20069;-69
2023/03/02 00:16:50;;;;;;;48.33;31.48;;;6.50;99.90;;;6.61;66.55;102386.59;5030563;28;20408;-69
2023/03/02 00:19:20;;;;;;;46.00;31.10;;;6.50;99.90;;;6.62;67.47;102377.88;5032042;28;20046;-68
2023/03/02 00:21:48;;;;;;;48.45;32.85;;;6.50;99.90;;;6.59;68.22;102383.03;5032666;28;20111;-68
2023/03/02 00:24:17;;;;;;;48.97;34.35;;;6.50;99.90;;;6.47;68.72;102380.84;5032428;28;20041;-68
2023/03/02 00:26:46;;;;;;;48.17;33.88;;;6.40;99.90;;;6.54;69.40;102379.34;5031093;28;20077;-69
2023/03/02 00:29:15;;;;;;;56.85;37.58;;;6.40;99.90;;;6.43;70.15;102372.81;5032741;28;20127;-69
2023/03/02 00:31:43;;;;;;;57.53;37.92;;;6.30;99.90;;;6.29;70.82;102360.03;5032160;28;20099;-69
2023/03/02 00:34:12;;;;;;;51.03;36.08;;;6.30;99.90;;;6.31;71.59;102366.25;5031096;28;20045;-69
2023/03/02 00:36:40;;;;;;;56.33;38.43;;;6.20;99.90;;;6.35;72.13;102370.78;5032278;28;20496;-68
2023/03/02 00:39:09;;;;;;;58.37;39.80;;;6.20;99.90;;;6.24;72.98;102358.09;5032178;28;20069;-69
2023/03/02 00:41:38;;;;;;;62.45;41.35;;;6.10;99.90;;;6.14;74.04;102364.75;5032122;28;20563;-69
2023/03/02 00:44:08;;;;;;;60.83;41.25;;;6.10;99.90;;;6.14;74.56;102351.59;5032150;28;20152;-68
2023/03/02 00:46:36;;;;;;;63.60;42.67;;;6.00;99.90;;;6.19;75.36;102352.66;5030783;28;20678;-68
2023/03/02 00:49:05;;;;;;;65.35;42.42;;;6.00;99.90;;;6.21;75.47;102358.88;5030445;28;20053;-68
2023/03/02 00:51:34;;;;;;;62.78;42.42;;;6.10;99.90;;;6.09;76.12;102350.56;5030854;28;20049;-69
2023/03/02 00:54:03;;;;;;;67.93;45.47;;;6.00;99.90;;;6.12;76.53;102350.66;5030661;28;20058;-68
2023/03/02 00:56:31;;;;;;;67.00;44.57;;;6.00;99.90;;;6.09;76.89;102347.94;5030664;28;20048;-69
2023/03/02 00:59:05;;;;;;;66.17;45.33;;;6.00;99.90;;;5.99;77.48;102344.88;5030726;28;20115;-68
2023/03/02 01:01:37;;;;;;;69.72;44.03;;;5.90;99.90;;;6.04;78.08;102352.09;5030374;28;20552;-69
2023/03/02 01:04:05;;;;;;;69.63;45.60;;;5.90;99.90;;;6.02;78.41;102342.38;5030667;28;20045;-68
2023/03/02 01:06:34;;;;;;;70.83;46.80;;;5.90;99.90;;;6.05;78.65;102345.13;5032501;28;20045;-69
2023/03/02 01:09:03;;;;;;;65.30;45.00;;;5.90;99.90;;;6.01;79.09;102352.00;5031910;28;20146;-69
2023/03/02 01:11:32;;;;;;;73.43;46.17;;;5.90;99.90;;;5.97;79.50;102339.59;5030732;28;20037;-69
2023/03/02 01:14:00;;;;;;;72.40;47.63;;;5.80;99.90;;;5.95;79.73;102333.38;5031540;28;20179;-69
2023/03/02 01:16:28;;;;;;;73.78;48.47;;;5.80;99.90;;;5.88;80.23;102347.13;5030452;28;20128;-69
2023/03/02 01:18:58;;;;;;;72.33;46.33;;;5.70;99.90;;;5.83;80.78;102347.72;5031657;28;20045;-69
2023/03/02 01:21:27;;;;;;;69.10;46.97;;;5.70;99.90;;;5.96;80.80;102358.78;5031718;28;20472;-69
2023/03/02 01:23:55;;;;;;;70.13;45.80;;;5.80;99.90;;;5.98;80.73;102351.00;5031690;28;20430;-69
2023/03/02 01:26:23;;;;;;;71.40;46.20;;;5.80;99.90;;;5.89;81.43;102353.25;5031377;28;20049;-69
2023/03/02 01:28:54;;;;;;;66.87;45.80;;;5.80;99.90;;;5.86;81.38;102348.78;5032213;28;20052;-69
2023/03/02 01:31:23;;;;;;;67.40;45.78;;;5.70;99.90;;;5.82;81.63;102354.72;5035212;28;20049;-69
2023/03/02 01:33:51;;;;;;;69.60;46.10;;;5.70;99.90;;;5.76;81.59;102348.31;5035034;28;20064;-69
2023/03/02 01:36:21;;;;;;;69.43;47.10;;;5.60;99.90;;;5.72;82.06;102347.31;5033927;28;20073;-69
2023/03/02 01:38:50;;;;;;;69.43;46.40;;;5.60;99.90;;;5.64;82.77;102342.59;5034984;28;20515;-69
2023/03/02 01:41:18;;;;;;;71.73;48.23;;;5.50;99.90;;;5.53;82.86;102324.69;5034535;28;20477;-68
2023/03/02 01:43:47;;;;;;;67.13;44.23;;;5.50;99.90;;;5.55;83.47;102339.63;5033913;28;20156;-68
2023/03/02 01:46:18;;;;;;;67.77;44.93;;;5.40;99.90;;;5.46;83.21;102322.69;5033693;28;20052;-69
2023/03/02 01:48:54;;;;;;;69.10;44.77;;;5.40;99.90;;;5.39;83.83;102323.28;5033980;28;20050;-69
2023/03/02 01:51:56;;;;;;;69.10;44.53;;;5.30;99.90;;;5.50;83.67;102328.94;5033995;28;20053;-68
2023/03/02 01:54:25;;;;;;;68.72;45.97;;;5.40;99.90;;;4.96;83.18;102240.19;5033639;28;20405;-69
2023/03/02 01:57:02;;;;;;;70.60;46.25;;;5.40;99.90;;;5.37;83.35;102309.22;5033545;28;20176;-68
2023/03/02 01:59:33;;;;;;;68.97;43.47;;;5.40;99.90;;;5.40;83.30;102318.94;5033438;28;20053;-69
2023/03/02 02:02:08;;;;;;;65.07;42.77;;;5.30;99.90;;;5.35;83.40;102328.34;5033340;28;20045;-68
2023/03/02 02:04:40;;;;;;;67.53;43.73;;;5.30;99.90;;;5.30;83.03;102322.03;5034822;28;20037;-69
2023/03/02 02:07:10;;;;;;;66.23;43.73;;;5.20;99.90;;;5.22;83.26;102328.69;5034492;28;20114;-69
2023/03/02 02:09:44;;;;;;;73.50;48.00;;;5.10;99.90;;;5.12;83.38;102323.88;5033280;28;20069;-68
2023/03/02 02:12:14;;;;;;;70.17;44.07;;;5.10;99.90;;;5.00;83.89;102299.78;5033766;28;20049;-68
2023/03/02 02:14:44;;;;;;;70.33;43.43;;;5.00;99.90;;;5.17;83.58;102318.00;5034330;28;20049;-68
2023/03/02 02:17:13;;;;;;;70.33;44.63;;;5.10;99.90;;;5.18;83.53;102329.38;5033407;28;20045;-69
2023/03/02 02:19:56;;;;;;;71.17;45.77;;;5.10;99.90;;;5.00;83.34;102305.03;5034162;28;20075;-69
2023/03/02 02:22:42;;;;;;;69.90;44.20;;;5.00;99.90;;;5.18;83.58;102318.91;5034388;28;20060;-68
2023/03/02 02:25:26;;;;;;;71.83;43.70;;;5.00;99.90;;;5.22;83.04;102328.69;5034351;28;20455;-68
2023/03/02 02:27:57;;;;;;;70.63;45.73;;;5.10;99.90;;;5.16;83.26;102320.56;5034424;28;20107;-68
2023/03/02 02:30:26;;;;;;;68.37;43.90;;;5.00;99.90;;;5.12;83.03;102306.44;5033008;28;20111;-69
2023/03/02 02:32:57;;;;;;;69.63;44.00;;;5.00;99.90;;;5.21;83.03;102313.75;5034356;28;20125;-69
2023/03/02 02:35:29;;;;;;;74.47;45.43;;;5.10;99.90;;;5.15;82.79;102301.31;5033186;28;20045;-68
2023/03/02 02:38:04;;;;;;;70.57;44.57;;;5.10;99.90;;;4.29;82.83;102152.72;5032927;28;20049;-69
2023/03/02 02:40:45;;;;;;;73.47;44.93;;;5.10;99.90;;;5.08;83.35;102303.63;5032115;28;20099;-68
2023/03/02 02:43:20;;;;;;;73.43;44.53;;;5.00;99.90;;;5.10;83.05;102308.09;5032541;28;20107;-69
2023/03/02 02:45:52;;;;;;;73.70;44.53;;;5.00;99.90;;;5.17;82.87;102312.75;5032944;28;20053;-68
2023/03/02 02:48:25;;;;;;;67.97;42.00;;;5.00;99.90;;;5.16;82.82;102305.72;5033847;28;20103;-68
2023/03/02 02:50:59;;;;;;;73.00;43.73;;;5.00;99.90;;;5.13;82.96;102308.22;5032394;28;20053;-68
2023/03/02 02:53:34;;;;;;;72.07;43.37;;;5.00;99.90;;;5.09;83.02;102306.28;5034416;28;20041;-69
2023/03/02 02:56:04;;;;;;;72.97;42.43;;;5.00;99.90;;;5.04;82.93;102307.84;5034107;28;20045;-69
2023/03/02 02:58:39;;;;;;;69.83;42.50;;;5.00;99.90;;;4.25;83.30;102171.75;5032548;28;20083;-69
2023/03/02 03:01:10;;;;;;;74.43;44.23;;;4.90;99.90;;;4.98;83.51;102306.69;5033874;28;20037;-69
2023/03/02 03:03:39;;;;;;;;;;;4.90;99.90;;;4.95;83.83;102310.09;5034045;28;20374;-68
2023/03/02 03:06:19;;;;;;;70.13;42.37;;;4.90;99.90;;;4.28;83.70;102174.47;5049126;28;19933;-69
2023/03/02 03:08:56;;;;;;;75.60;44.07;;;4.90;99.90;;;5.02;83.94;102295.50;5033854;28;20095;-69
2023/03/02 03:11:34;;;;;;;71.20;43.10;;;4.90;99.90;;;5.07;83.91;102333.31;5034048;28;20077;-68
2023/03/02 03:14:08;;;;;;;71.07;43.97;;;4.90;99.90;;;4.80;84.20;102266.63;5033817;28;20103;-69
2023/03/02 03:16:39;;;;;;;74.80;43.87;;;4.90;99.90;;;4.86;84.41;102269.50;5032366;28;20045;-68
2023/03/02 03:19:17;;;;;;;73.97;43.53;;;4.90;99.90;;;4.94;84.29;102299.53;5033858;28;20440;-68
2023/03/02 03:21:46;;;;;;;77.93;47.63;;;4.80;99.90;;;4.85;84.30;102291.28;5032217;28;20060;-69
2023/03/02 03:24:15;;;;;;;71.15;43.22;;;4.80;99.90;;;4.91;84.80;102294.19;5032191;28;20495;-68
2023/03/02 03:26:44;;;;;;;76.97;46.93;;;4.80;99.90;;;4.77;84.66;102258.63;5031865;28;20051;-69
2023/03/02 03:29:17;;;;;;;76.03;43.45;;;4.80;99.90;;;4.95;84.30;102297.00;5031805;28;20041;-69
2023/03/02 03:31:47;;;;;;;73.67;43.77;;;4.90;99.90;;;4.84;84.55;102276.41;5031580;28;20115;-68
2023/03/02 03:34:17;;;;;;;72.77;43.00;;;4.80;99.90;;;4.93;84.69;102288.16;5033027;28;20049;-68
2023/03/02 03:36:46;;;;;;;75.00;44.90;;;4.80;99.90;;;4.87;84.82;102290.53;5032712;28;20041;-68
2023/03/02 03:39:16;;;;;;;71.93;44.97;;;4.80;99.90;;;4.85;84.90;102286.97;5031672;28;20191;-68
2023/03/02 03:41:45;;;;;;;74.23;44.83;;;4.70;99.90;;;4.85;84.82;102281.72;5032757;28;20304;-68
2023/03/02 03:44:15;;;;;;;75.60;45.30;;;4.70;99.90;;;4.40;84.89;102212.56;5032615;28;20037;-68
2023/03/02 03:46:44;;;;;;;69.13;42.77;;;4.70;99.90;;;4.87;85.19;102287.91;5031825;28;20374;-70
2023/03/02 03:49:13;;;;;;;71.57;44.00;;;4.70;99.90;;;4.86;84.69;102283.50;5031479;28;20064;-68
2023/03/02 03:51:42;;;;;;;71.97;44.03;;;4.70;99.90;;;4.80;85.25;102290.22;5030567;28;20085;-68
2023/03/02 03:54:10;;;;;;;71.00;43.67;;;4.70;99.90;;;4.81;85.20;102287.66;5031115;28;20107;-68
2023/03/02 03:56:44;;;;;;;;;;;4.70;99.90;;;4.82;85.61;102288.56;5031887;28;20057;-69
2023/03/02 03:59:20;;;;;;;70.50;43.47;;;4.70;99.90;;;4.73;84.58;102262.84;5031373;28;20280;-68
2023/03/02 04:01:56;;;;;;;76.50;44.10;;;4.80;99.90;;;4.93;84.89;102305.63;5031175;28;20385;-68
2023/03/02 04:04:31;;;;;;;71.60;43.83;;;4.80;99.90;;;4.89;84.67;102306.31;5032845;28;20477;-68
2023/03/02 04:07:00;;;;;;;76.83;45.17;;;4.80;99.90;;;4.86;84.76;102303.59;5031533;28;20528;-68
2023/03/02 04:09:31;;;;;;;72.10;43.27;;;4.80;99.90;;;4.98;84.67;102306.69;5031164;28;20338;-68
2023/03/02 04:12:00;;;;;;;70.50;42.38;;;4.80;99.90;;;4.94;84.55;102303.06;5031295;28;20053;-68
2023/03/02 04:14:30;;;;;;;70.43;43.03;;;4.80;99.90;;;4.92;84.87;102302.09;5030919;28;20041;-68
2023/03/02 04:16:59;;;;;;;67.30;42.58;;;4.80;99.90;;;4.97;84.60;102304.91;5030860;28;20053;-67
2023/03/02 04:19:28;;;;;;;65.67;42.70;;;4.80;99.90;;;4.98;84.73;102302.34;5030884;28;20037;-68
2023/03/02 04:22:00;;;;;;;67.53;42.20;;;4.90;99.90;;;5.06;84.46;102307.91;5030837;28;20404;-68
2023/03/02 04:24:29;;;;;;;69.67;42.80;;;4.90;99.90;;;5.04;84.33;102306.94;5030900;28;20433;-68
2023/03/02 04:27:00;;;;;;;68.10;42.53;;;4.90;99.90;;;4.66;84.29;102252.06;5030615;28;20045;-68
2023/03/02 04:29:31;;;;;;;63.33;40.43;;;4.80;99.90;;;4.96;84.50;102305.72;5031125;28;20061;-68
2023/03/02 04:32:01;;;;;;;65.97;40.87;;;4.80;99.90;;;4.92;84.25;102296.84;5030837;28;20496;-68
2023/03/02 04:34:32;;;;;;;68.20;41.17;;;4.90;99.90;;;4.96;84.52;102295.25;5031099;28;20053;-68
2023/03/02 04:37:01;;;;;;;67.87;40.20;;;4.90;99.90;;;4.93;84.60;102295.13;5032036;28;20120;-68
2023/03/02 04:39:29;;;;;;;67.43;40.50;;;4.80;99.90;;;4.88;84.79;102291.44;5030558;28;20049;-69
2023/03/02 04:41:57;;;;;;;65.30;41.83;;;4.80;99.90;;;4.88;84.84;102294.94;5031803;28;20139;-69
2023/03/02 04:44:26;;;;;;;68.50;40.97;;;4.80;99.90;;;4.85;84.87;102297.44;5031708;28;20034;-68
2023/03/02 04:46:56;;;;;;;65.20;40.53;;;4.80;99.90;;;4.92;84.77;102301.19;5031990;28;20377;-68
2023/03/02 04:49:25;;;;;;;63.30;40.10;;;4.80;99.90;;;5.00;84.43;102292.81;5032122;28;20057;-69
2023/03/02 04:51:53;;;;;;;68.40;42.67;;;4.90;99.90;;;4.85;84.40;102262.47;5031828;28;20441;-68
2023/03/02 04:54:26;;;;;;;65.77;41.63;;;4.90;99.90;;;4.80;84.13;102274.50;5031576;28;20084;-68
2023/03/02 04:56:55;;;;;;;65.87;42.43;;;4.90;99.90;;;4.77;84.03;102269.13;5031574;28;20041;-68
2023/03/02 04:59:27;;;;;;;67.63;40.30;;;4.80;99.90;;;4.68;84.14;102242.53;5031574;28;20041;-68
2023/03/02 05:02:00;;;;;;;65.47;40.80;;;4.90;99.90;;;4.96;83.79;102293.53;5030123;28;20049;-68
2023/03/02 05:04:29;;;;;;;68.03;41.47;;;4.80;99.90;;;4.93;84.03;102296.03;5033529;28;20528;-68
2023/03/02 05:06:58;;;;;;;64.18;40.83;;;4.80;99.90;;;4.66;84.42;102259.91;5035708;28;20056;-68
2023/03/02 05:09:29;;;;;;;63.13;39.03;;;4.70;99.90;;;4.88;84.54;102283.56;5035405;28;20445;-68
2023/03/02 05:12:00;;;;;;;63.63;39.87;;;4.80;99.90;;;4.84;84.19;102290.41;5035303;28;20493;-68
2023/03/02 05:14:29;;;;;;;64.17;40.57;;;4.80;99.90;;;4.85;83.97;102289.59;5035376;28;20555;-68
2023/03/02 05:16:59;;;;;;;60.80;38.00;;;4.70;99.90;;;4.85;84.18;102288.69;5035534;28;20034;-68
2023/03/02 05:19:28;;;;;;;60.95;37.72;;;4.70;99.90;;;4.81;84.35;102294.63;5035599;28;20049;-68
2023/03/02 05:21:56;;;;;;;62.63;38.37;;;4.70;99.90;;;4.79;84.08;102288.41;5035381;28;20049;-68
2023/03/02 05:24:25;;;;;;;63.93;37.67;;;4.70;99.90;;;4.78;84.03;102289.25;5035122;28;20045;-68
2023/03/02 05:26:53;;;;;;;63.30;37.97;;;4.70;99.90;;;4.72;83.83;102278.53;5035089;28;20100;-68
2023/03/02 05:29:22;;;;;;;57.63;36.73;;;4.60;99.90;;;4.72;83.93;102281.16;5035125;28;20071;-67
2023/03/02 05:31:50;;;;;;;62.00;37.73;;;4.60;99.90;;;4.76;83.65;102283.97;5035640;28;20075;-68
2023/03/02 05:34:20;;;;;;;62.93;37.37;;;4.60;99.90;;;4.77;84.05;102300.56;5035249;28;20416;-68
2023/03/02 05:36:49;;;;;;;62.28;36.58;;;4.70;99.90;;;4.78;83.76;102282.28;5035302;28;20122;-68
2023/03/02 05:39:17;;;;;;;60.10;37.10;;;4.70;99.90;;;4.70;83.63;102278.47;5035007;28;20052;-68
2023/03/02 05:41:45;;;;;;;58.20;36.20;;;4.60;99.90;;;4.81;83.61;102278.91;5034895;28;20107;-67
2023/03/02 05:44:15;;;;;;;63.40;38.20;;;4.70;99.90;;;4.76;83.22;102278.72;5033773;28;20041;-68
2023/03/02 05:46:44;;;;;;;58.97;36.73;;;4.70;99.90;;;4.73;83.40;102277.69;5033843;28;20109;-68
2023/03/02 05:49:12;;;;;;;58.50;36.97;;;4.70;99.90;;;4.83;82.94;102282.47;5033806;28;20042;-68
2023/03/02 05:51:42;;;;;;;58.20;35.67;;;4.70;99.90;;;4.82;83.17;102278.06;5033867;28;20069;-68
2023/03/02 05:54:10;;;;;;;57.92;35.33;;;4.70;99.90;;;4.15;82.67;102180.03;5035140;28;20153;-68
2023/03/02 05:56:39;;;;;;;55.67;35.10;;;4.70;99.90;;;4.84;82.72;102292.16;5034849;28;20065;-68
2023/03/02 05:59:07;;;;;;;56.77;35.77;;;4.70;99.90;;;4.54;82.94;102260.31;5035411;28;20091;-68
2023/03/02 06:01:36;;;;;;;62.83;38.03;;;4.70;99.90;;;4.70;83.67;102293.28;5034038;28;20041;-68
2023/03/02 06:04:05;;;;;;;58.03;36.10;;;4.60;99.90;;;4.73;83.35;102283.81;5034909;28;20034;-68
2023/03/02 06:06:33;;;;;;;57.20;35.63;;;4.70;99.90;;;4.81;83.52;102299.84;5034818;28;20080;-68
2023/03/02 06:09:03;;;;;;;58.50;35.70;;;4.70;99.90;;;4.78;83.47;102295.38;5034674;28;20428;-68
2023/03/02 06:11:32;;;;;;;58.05;35.70;;;4.70;99.90;;;4.76;83.89;102301.41;5033227;28;20131;-68
2023/03/02 06:14:00;;;;;;;57.23;36.33;;;4.70;99.90;;;4.82;84.37;102297.28;5034508;28;20044;-68
2023/03/02 06:16:30;;;;;;;59.77;36.50;;;4.70;99.90;;;4.75;84.60;102303.13;5033475;28;20051;-68
2023/03/02 06:18:59;;;;;;;59.13;36.83;;;4.70;99.90;;;4.63;85.06;102283.38;5034419;28;20042;-68
2023/03/02 06:21:27;;;;;;;56.50;35.57;;;4.60;99.90;;;4.68;84.75;102306.34;5034345;28;20045;-68
2023/03/02 06:23:56;;;;;;;60.67;37.00;;;4.60;99.90;;;4.56;85.72;102308.41;5034278;28;20459;-68
2023/03/02 06:26:25;;;;;;;59.50;35.40;;;4.50;99.90;;;4.54;85.70;102303.13;5034993;28;20128;-67
2023/03/02 06:28:54;;;;;;;55.42;34.17;;;4.50;99.90;;;4.59;85.15;102311.16;5034387;28;20041;-67
2023/03/02 06:31:22;;;;;;;59.27;35.93;;;4.50;99.90;;;4.57;85.61;102311.09;5034270;28;20072;-70
2023/03/02 06:33:51;;;;;;;58.10;34.13;;;4.50;99.90;;;4.57;85.48;102312.81;5034228;28;20045;-68
2023/03/02 06:36:19;;;;;;;57.50;36.43;;;4.50;99.90;;;4.55;85.55;102314.47;5034029;28;20041;-68
2023/03/02 06:38:48;;;;;;;58.17;37.03;;;4.50;99.90;;;4.55;85.56;102312.75;5034150;28;20076;-68
2023/03/02 06:41:16;;;;;;;56.87;35.70;;;4.40;99.90;;;4.53;85.91;102308.28;5034091;28;20038;-68
2023/03/02 06:43:46;;;;;;;58.33;36.50;;;4.40;99.90;;;4.59;85.99;102317.31;5032582;28;20802;-68
2023/03/02 06:46:14;;;;;;;62.28;37.38;;;4.50;99.90;;;4.45;86.10;102291.38;5032528;28;20052;-69
2023/03/02 06:48:43;;;;;;;58.93;37.27;;;4.50;99.90;;;3.90;85.59;102188.56;5032439;28;20068;-68
2023/03/02 06:51:12;;;;;;;56.83;35.93;;;4.60;99.90;;;4.68;85.74;102316.81;5033585;28;20467;-68
2023/03/02 06:53:40;;;;;;;56.50;35.87;;;4.60;99.90;;;4.84;85.65;102310.50;5032350;28;20630;-68
2023/03/02 06:56:09;;;;;;;58.10;35.73;;;4.70;99.90;;;4.96;84.70;102318.84;5032259;28;20488;-68
2023/03/02 06:58:38;;;;;;;55.17;35.33;;;4.80;99.90;;;5.06;84.44;102315.78;5032509;28;20042;-68
2023/03/02 07:01:07;;;;;;;54.33;34.53;;;4.90;99.90;;;5.17;84.05;102319.72;5033328;28;20075;-68
2023/03/02 07:03:36;;;;;;;52.75;33.17;;;5.00;99.90;;;5.28;83.19;102323.69;5033208;28;20067;-68
2023/03/02 07:06:05;;;;;;;54.50;33.37;;;5.10;99.90;;;5.29;82.79;102321.13;5032041;28;20041;-68
2023/03/02 07:08:34;;;;;;;58.63;36.00;;;5.20;99.90;;;5.36;82.69;102317.03;5031723;28;20068;-68
2023/03/02 07:11:06;;;;;;;56.50;34.30;;;5.20;99.90;;;5.36;81.79;102301.28;5033220;28;20136;-68
2023/03/02 07:13:36;;;;;;;54.63;34.13;;;5.40;99.90;;;5.00;81.41;102236.84;5033667;28;20089;-68
2023/03/02 07:16:12;;;;;;;50.20;33.15;;;5.50;99.90;;;5.75;81.20;102322.94;5033684;28;20103;-69
2023/03/02 07:18:41;;;;;;;50.03;32.33;;;5.70;99.90;;;5.62;80.50;102326.78;5033332;28;20364;-68
2023/03/02 07:21:09;;;;;;;52.23;33.07;;;5.70;99.90;;;5.96;79.95;102337.78;5033242;28;20475;-68
2023/03/02 07:23:38;;;;;;;50.95;33.38;;;5.80;99.90;;;6.16;79.16;102338.53;5032801;28;20096;-67
2023/03/02 07:26:07;;;;;;;50.78;32.53;;;6.00;99.90;;;5.64;78.44;102228.00;5032612;28;20068;-67
2023/03/02 07:28:38;;;;;;;49.42;32.25;;;6.20;99.90;;;6.46;77.58;102344.91;5032816;28;20091;-68
2023/03/02 07:31:09;;;;;;;46.22;30.08;;;6.40;99.90;;;6.50;76.70;102320.53;5031653;28;20050;-68
2023/03/02 07:33:39;;;;;;;50.33;31.25;;;6.50;99.90;;;6.74;76.20;102336.22;5032743;28;20045;-68
2023/03/02 07:36:09;;;;;;;52.30;32.33;;;6.70;99.90;;;7.03;75.27;102348.63;5031621;28;20104;-68
2023/03/02 07:38:38;;;;;;;50.75;31.52;;;6.90;99.90;;;7.19;74.03;102338.69;5031441;28;20451;-68
2023/03/02 07:41:08;;;;;;;45.37;30.23;;;7.10;99.90;;;7.41;73.70;102379.75;5032471;28;20069;-67
2023/03/02 07:43:37;;;;;;;44.75;30.48;;;7.30;99.90;;;7.62;72.44;102342.69;5032815;28;20308;-68
2023/03/02 07:46:06;;;;;;;50.53;31.13;;;7.60;99.90;;;7.94;72.02;102345.44;5031290;28;20457;-68
2023/03/02 07:48:36;;;;;;;46.22;29.08;;;7.80;99.90;;;8.30;70.63;102350.94;5032422;28;20049;-68
2023/03/02 07:51:06;;;;;;;44.75;29.92;;;8.20;99.90;;;8.54;69.26;102343.69;5032306;28;20156;-68
2023/03/02 07:53:35;;;;;;;45.65;29.50;;;8.40;99.90;;;8.78;67.92;102351.38;5032568;28;20053;-68
2023/03/02 07:56:07;;;;;;;43.47;30.20;;;8.70;99.90;;;8.95;66.89;102343.06;5032268;28;20057;-68
2023/03/02 07:58:36;;;;;;;44.13;29.25;;;8.90;99.90;;;9.21;66.13;102350.75;5032618;28;20484;-70
2023/03/02 08:01:05;;;;;;;44.30;29.50;;;9.10;99.90;;;9.32;64.82;102349.25;5032103;28;20053;-68
2023/03/02 08:03:34;;;;;;;43.90;29.77;;;9.20;99.90;;;9.39;64.22;102354.72;5031022;28;20060;-68
2023/03/02 08:06:07;;;;;;;43.95;29.17;;;9.30;99.90;;;9.62;63.64;102356.16;5032291;28;20046;-68
2023/03/02 08:08:37;;;;;;;40.83;28.55;;;9.50;99.90;;;9.57;62.75;102338.41;5032389;28;20487;-69
2023/03/02 08:11:06;;;;;;;40.67;28.55;;;9.60;99.90;;;9.83;62.46;102351.34;5032070;28;20037;-68
2023/03/02 08:13:35;;;;;;;42.13;29.02;;;9.70;99.90;;;10.13;62.20;102344.97;5031960;28;20472;-68
2023/03/02 08:16:06;;;;;;;41.42;29.60;;;10.00;99.90;;;10.15;60.94;102336.22;5032229;28;20460;-68
2023/03/02 08:18:36;;;;;;;44.63;29.88;;;10.10;99.90;;;10.22;60.36;102346.06;5030924;28;20045;-68
2023/03/02 08:21:12;;;;;;;40.22;27.85;;;10.20;99.90;;;10.14;60.38;102350.31;5032240;28;20045;-68
2023/03/02 08:23:41;;;;;;;43.28;28.95;;;10.00;99.90;;;10.33;59.74;102355.13;5030755;28;20075;-68
2023/03/02 08:26:10;;;;;;;42.70;28.98;;;10.10;99.90;;;10.12;59.71;102304.47;5031951;28;20079;-69
2023/03/02 08:28:41;;;;;;;41.08;28.60;;;10.20;99.90;;;10.03;60.15;102344.75;5032231;28;20053;-68
2023/03/02 08:31:10;;;;;;;41.35;28.65;;;10.00;99.90;;;10.34;59.55;102350.72;5032217;28;20047;-68
2023/03/02 08:33:39;;;;;;;39.13;28.10;;;10.10;99.90;;;10.32;58.91;102318.94;5031746;28;20103;-69
2023/03/02 08:36:13;;;;;;;41.75;29.25;;;10.30;99.90;;;10.44;58.68;102313.00;5032332;28;20522;-68
2023/03/02 08:38:42;;;;;;;40.70;27.42;;;10.40;99.90;;;10.26;57.34;102339.97;5031273;28;20042;-68
2023/03/02 08:41:13;;;;;;;42.22;28.27;;;10.30;99.90;;;9.76;58.92;102341.50;5031791;28;20045;-68
2023/03/02 08:43:42;;;;;;;39.38;27.77;;;9.80;99.90;;;9.98;59.29;102337.59;5032401;28;20377;-68
2023/03/02 08:46:12;;;;;;;39.50;27.90;;;9.80;99.90;;;10.16;58.78;102342.41;5030851;28;20050;-69
2023/03/02 08:48:41;;;;;;;40.13;28.63;;;10.00;99.90;;;10.12;58.60;102337.94;5031874;28;20041;-69
2023/03/02 08:51:14;;;;;;;40.15;27.83;;;10.00;99.90;;;10.16;58.49;102356.53;5030858;28;20152;-68
2023/03/02 08:53:46;;;;;;;40.50;28.17;;;10.10;99.90;;;9.53;57.30;102212.41;5030996;28;20481;-68
2023/03/02 08:56:17;;;;;;;39.85;27.42;;;10.10;99.90;;;10.15;56.93;102336.22;5032261;28;20508;-68
2023/03/02 08:58:46;;;;;;;39.30;27.17;;;10.10;99.90;;;10.17;56.71;102323.94;5031010;28;20137;-69
2023/03/02 09:01:17;;;;;;;40.95;27.95;;;10.10;99.90;;;10.18;57.04;102336.28;5032054;28;20516;-68
2023/03/02 09:03:46;;;;;;;38.92;27.23;;;10.10;99.90;;;10.31;56.69;102358.59;5030682;28;20103;-69
2023/03/02 09:06:15;;;;;;;38.47;26.80;;;10.20;99.90;;;10.53;56.28;102339.66;5030725;28;20045;-69
2023/03/02 09:08:45;;;;;;;38.28;26.65;;;10.40;99.90;;;10.60;56.13;102336.25;5030599;28;20484;-69
2023/03/02 09:11:13;;;;;;;37.28;26.50;;;10.40;99.90;;;10.63;55.73;102331.91;5030206;28;20132;-68
2023/03/02 09:13:42;;;;;;;38.85;27.45;;;10.50;99.90;;;10.83;55.99;102329.63;5031558;28;20507;-68
2023/03/02 09:16:12;;;;;;;38.00;28.02;;;10.60;99.90;;;11.14;55.47;102341.63;5031480;28;20049;-69
2023/03/02 09:18:41;;;;;;;36.75;24.80;;;10.90;99.90;;;11.29;54.13;102332.19;5031540;28;20045;-68
2023/03/02 09:21:10;;;;;;;37.50;26.17;;;11.10;99.90;;;10.82;54.31;102327.81;5031662;28;20481;-69
2023/03/02 09:23:40;;;;;;;36.30;26.75;;;10.70;99.90;;;10.92;54.25;102335.06;5031448;28;20566;-68
2023/03/02 09:26:09;;;;;;;36.13;25.57;;;10.80;99.90;;;11.02;53.78;102329.09;5031361;28;20045;-68
2023/03/02 09:28:38;;;;;;;38.10;25.98;;;10.90;99.90;;;10.80;53.21;102338.41;5030317;28;20634;-68
2023/03/02 09:31:08;;;;;;;38.13;26.17;;;10.70;99.90;;;10.40;53.96;102335.88;5030378;28;20054;-68
2023/03/02 09:33:37;;;;;;;36.47;25.75;;;10.40;99.90;;;10.27;54.02;102330.31;5031329;28;20132;-69
2023/03/02 09:36:07;;;;;;;36.45;26.38;;;10.20;99.90;;;9.98;56.02;102333.22;5031272;28;20041;-68
2023/03/02 09:38:36;;;;;;;38.75;26.55;;;9.80;99.90;;;9.29;57.18;102336.84;5031960;28;20502;-68
2023/03/02 09:41:35;;;;;;;38.53;23.88;;;9.30;99.90;;;9.59;57.13;102331.41;5031478;28;20048;-68
2023/03/02 09:44:20;;;;;;;39.08;25.10;;;9.30;99.90;;;9.54;59.08;102319.88;5031450;28;20067;-68
2023/03/02 09:46:51;;;;;;;35.35;25.27;;;9.20;99.90;;;9.99;56.90;102324.41;5030177;28;20107;-68
2023/03/02 09:49:32;;;;;;;35.58;23.60;;;9.70;99.90;;;10.14;56.49;102330.91;5031078;28;20042;-68
2023/03/02 09:52:10;;;;;;;35.75;23.25;;;9.90;99.90;;;10.10;55.52;102323.78;5034480;28;20049;-68
2023/03/02 09:54:40;;;;;;;36.45;24.10;;;9.90;99.90;;;10.19;54.71;102331.91;5034935;28;20469;-69
2023/03/02 09:57:21;;;;;;;35.72;23.60;;;10.10;99.90;;;10.10;55.76;102329.06;5033607;28;20060;-68
2023/03/02 09:59:57;;;;;;;36.35;23.92;;;10.00;99.90;;;10.32;54.80;102318.94;5033570;28;20136;-68
2023/03/02 10:02:47;;;;;;;35.50;24.75;;;10.20;99.90;;;10.22;53.63;102318.75;5034369;28;20208;-68
2023/03/02 10:05:20;;;;;;;36.35;22.88;;;10.20;99.90;;;10.43;54.29;102321.81;5033514;28;20045;-68
2023/03/02 10:07:49;;;;;;;32.83;23.08;;;10.20;99.90;;;10.63;54.29;102315.13;5033351;28;20059;-69
2023/03/02 10:10:29;;;;;;;33.10;22.42;;;10.40;99.90;;;10.85;53.54;102326.16;5034561;28;20391;-69
2023/03/02 10:13:15;;;;;;;33.72;22.73;;;10.60;99.90;;;10.21;53.85;102293.16;5034268;28;20496;-69
2023/03/02 10:15:56;;;;;;;32.00;22.25;;;10.50;99.90;;;10.60;55.00;102325.66;5034359;28;20049;-68
2023/03/02 10:18:35;;;;;;;31.15;22.45;;;10.40;99.90;;;10.14;55.19;102326.53;5034268;28;20486;-68
2023/03/02 10:21:12;;;;;;;35.40;22.90;;;10.20;99.90;;;10.68;55.47;102322.28;5033085;28;20053;-68
2023/03/02 10:23:48;;;;;;;30.40;22.05;;;10.40;99.90;;;10.88;54.72;102325.28;5034087;28;20160;-69
2023/03/02 10:26:30;;;;;;;32.15;21.58;;;10.60;99.90;;;10.90;53.14;102321.81;5033056;28;20400;-68